Time;durP1;ratioP1;P1;durP2;ratioP2;P2;SDS_P1;SDS_P2;PMS_P1;PMS_P2;Temp;Humidity;BMP_temperature;BMP_pressure;BME280_temperature;BME280_humidity;BME280_pressure;Samples;Min_cycle;Max_cycle;Signal;HPM_P1;HPM_P2
2021/05/31 00:00:26;;;;;;;;;3.00;3.00;;;;;26.45;32.73;101856.63;5093086;27;46214;-62
2021/05/31 00:02:52;;;;;;;;;3.00;3.00;;;;;26.43;32.69;101844.34;5093489;27;45903;-62
2021/05/31 00:05:22;;;;;;;;;2.50;2.50;;;;;26.42;32.75;101846.19;5093110;27;46109;-62
2021/05/31 00:07:49;;;;;;;;;3.00;3.00;;;;;26.41;32.70;101844.47;5093412;27;45584;-62
2021/05/31 00:10:14;;;;;;;;;3.00;2.00;;;;;26.39;32.97;101841.94;5091641;27;46276;-62
2021/05/31 00:12:40;;;;;;;;;1.50;1.25;;;;;26.37;32.74;101840.34;5093029;27;45443;-62
2021/05/31 00:15:08;;;;;;;;;2.75;2.75;;;;;26.36;32.96;101830.59;5093042;27;45448;-62
2021/05/31 00:17:35;;;;;;;;;2.00;2.00;;;;;26.33;33.02;101837.06;5093343;27;45438;-62
2021/05/31 00:20:00;;;;;;;;;2.00;2.00;;;;;26.34;32.83;101830.75;5092081;27;46155;-63
2021/05/31 00:22:26;;;;;;;;;1.75;1.75;;;;;26.23;32.84;101812.84;5092918;27;45673;-62
2021/05/31 00:24:52;;;;;;;;;3.00;3.00;;;;;26.31;32.69;101832.81;5093330;27;45766;-62
2021/05/31 00:27:18;;;;;;;;;3.00;3.00;;;;;26.32;33.11;101831.84;5093284;27;45550;-62
2021/05/31 00:29:44;;;;;;;;;2.25;2.25;;;;;26.32;32.97;101831.84;5092821;27;46999;-62
2021/05/31 00:32:12;;;;;;;;;2.50;2.25;;;;;26.29;32.88;101830.28;5091328;27;45816;-62
2021/05/31 00:34:38;;;;;;;;;2.50;2.25;;;;;26.29;32.90;101832.97;5092939;27;45728;-62
2021/05/31 00:37:05;;;;;;;;;3.00;3.00;;;;;26.28;32.78;101833.91;5093031;27;45574;-62
2021/05/31 00:39:31;;;;;;;;;2.75;2.75;;;;;26.23;32.70;101820.88;5092810;27;45885;-63
2021/05/31 00:41:56;;;;;;;;;3.50;2.75;;;;;26.26;32.72;101825.16;5092921;27;45492;-64
2021/05/31 00:44:23;;;;;;;;;2.00;1.50;;;;;26.24;33.06;101836.00;5092167;27;45541;-62
2021/05/31 00:46:51;;;;;;;;;3.25;2.25;;;;;26.22;32.92;101821.88;5093069;27;45457;-62
2021/05/31 00:49:23;;;;;;;;;2.00;2.00;;;;;26.22;33.04;101821.88;5092561;27;46200;-62
2021/05/31 00:51:49;;;;;;;;;2.00;2.00;;;;;26.21;32.92;101822.00;5094948;27;45608;-62
2021/05/31 00:54:16;;;;;;;;;5.00;3.25;;;;;26.18;32.93;101812.38;5095103;27;45486;-63
2021/05/31 00:56:44;;;;;;;;;2.75;2.75;;;;;26.13;32.85;101814.59;5096324;27;45605;-62
2021/05/31 00:59:10;;;;;;;;;1.75;1.75;;;;;26.16;33.06;101825.06;5095910;27;46646;-63
2021/05/31 01:01:38;;;;;;;;;3.00;3.00;;;;;26.13;32.83;101811.91;5096287;27;45714;-62
2021/05/31 01:04:04;;;;;;;;;3.00;2.75;;;;;26.13;32.90;101819.94;5095122;27;45959;-63
2021/05/31 01:06:35;;;;;;;;;2.00;2.00;;;;;25.98;32.50;101798.00;5096350;27;45481;-62
2021/05/31 01:09:01;;;;;;;;;2.75;2.75;;;;;26.09;32.97;101813.16;5095728;27;46423;-63
2021/05/31 01:11:52;;;;;;;;;2.75;2.75;;;;;26.08;32.71;101816.81;5095708;27;45768;-62
2021/05/31 01:14:29;;;;;;;;;4.00;3.00;;;;;26.06;33.08;101816.09;5083488;27;45464;-62
2021/05/31 01:17:24;;;;;;;;;2.00;2.00;;;;;26.02;32.74;101812.78;5095966;27;45569;-64
2021/05/31 01:19:53;;;;;;;;;2.25;2.00;;;;;26.02;32.92;101818.16;5096017;27;46758;-63
2021/05/31 01:22:26;;;;;;;;;2.50;2.50;;;;;26.02;33.09;101811.97;5094940;27;45494;-62
2021/05/31 01:24:57;;;;;;;;;2.50;2.50;;;;;25.99;32.95;101811.22;5095987;27;45516;-61
2021/05/31 01:27:35;;;;;;;;;3.00;3.00;;;;;25.97;32.80;101807.84;5095913;27;45430;-62
2021/05/31 01:30:08;;;;;;;;;3.50;3.00;;;;;25.97;32.61;101812.31;5094354;27;45496;-62
2021/05/31 01:32:41;;;;;;;;;3.00;2.25;;;;;25.96;33.05;101814.16;5095172;27;45750;-61
2021/05/31 01:35:11;;;;;;;;;2.25;2.25;;;;;25.94;33.11;101807.25;5095351;27;45438;-61
2021/05/31 01:37:41;;;;;;;;;4.25;3.00;;;;;25.90;32.91;101805.78;5095498;27;45462;-61
2021/05/31 01:40:08;;;;;;;;;3.25;2.00;;;;;25.92;32.99;101809.16;5094312;27;46208;-62
2021/05/31 01:42:35;;;;;;;;;3.00;3.00;;;;;25.90;32.85;101801.28;5095745;27;45558;-62
2021/05/31 01:45:04;;;;;;;;;4.00;3.00;;;;;25.89;33.01;101802.25;5095654;27;45560;-62
2021/05/31 01:47:33;;;;;;;;;3.00;3.00;;;;;25.87;33.01;101801.53;5095528;27;45576;-62
2021/05/31 01:49:59;;;;;;;;;3.00;2.25;;;;;25.86;33.08;101794.50;5076124;27;47535;-62
2021/05/31 01:52:25;;;;;;;;;3.25;2.00;;;;;25.86;32.93;101795.31;5094969;27;45480;-62
2021/05/31 01:54:56;;;;;;;;;3.00;3.00;;;;;25.84;33.21;101794.59;5095486;27;45945;-61
2021/05/31 01:57:23;;;;;;;;;3.00;3.00;;;;;25.83;32.81;101787.56;5095373;27;45643;-62
2021/05/31 01:59:50;;;;;;;;;2.50;2.50;;;;;25.82;32.61;101793.03;5095135;27;47010;-62
2021/05/31 02:02:16;;;;;;;;;2.75;2.75;;;;;25.77;33.10;101785.38;5093620;27;45860;-62
2021/05/31 02:04:43;;;;;;;;;2.50;2.50;;;;;25.80;32.83;101790.47;5095304;27;45516;-61
2021/05/31 02:07:09;;;;;;;;;3.00;3.00;;;;;25.80;32.96;101789.63;5095228;27;45894;-62
2021/05/31 02:09:34;;;;;;;;;3.00;3.00;;;;;25.78;32.83;101783.53;5094965;27;46200;-62
2021/05/31 02:12:10;;;;;;;;;4.50;4.00;;;;;25.77;33.10;101788.06;5093956;27;45500;-63
2021/05/31 02:15:02;;;;;;;;;3.00;3.00;;;;;25.72;33.08;101777.72;5095048;27;45410;-62
2021/05/31 02:17:56;;;;;;;;;4.00;4.00;;;;;25.72;33.19;101777.72;5085952;27;45560;-62
2021/05/31 02:20:25;;;;;;;;;3.00;2.00;;;;;25.72;33.33;101779.56;5094133;27;47732;-61
2021/05/31 02:22:56;;;;;;;;;2.00;2.00;;;;;25.70;33.01;101777.00;5094935;27;45526;-62
2021/05/31 02:25:22;;;;;;;;;3.00;3.00;;;;;25.68;33.10;101778.97;5095106;27;45510;-62
2021/05/31 02:27:50;;;;;;;;;3.25;2.75;;;;;25.67;32.87;101776.41;5095036;27;45441;-61
2021/05/31 02:30:18;;;;;;;;;4.00;2.00;;;;;25.66;32.73;101782.75;5093272;27;47352;-61
2021/05/31 02:33:04;;;;;;;;;2.00;2.00;;;;;25.65;32.98;101786.38;5094361;27;45474;-61
2021/05/31 02:35:33;;;;;;;;;3.00;3.00;;;;;25.63;33.39;101789.19;5094649;27;45501;-62
2021/05/31 02:38:01;;;;;;;;;1.50;1.50;;;;;25.61;33.08;101791.13;5094202;27;45501;-63
2021/05/31 02:40:28;;;;;;;;;3.00;3.00;;;;;25.58;33.26;101780.69;5094627;27;47115;-62
2021/05/31 02:42:56;;;;;;;;;3.50;3.50;;;;;25.59;33.20;101788.56;5094782;27;45779;-62
2021/05/31 02:45:24;;;;;;;;;2.50;2.00;;;;;25.58;33.12;101794.06;5094566;27;45675;-62
2021/05/31 02:47:51;;;;;;;;;3.00;3.00;;;;;25.57;32.72;101797.69;5094596;27;45460;-61
2021/05/31 02:50:16;;;;;;;;;4.00;4.00;;;;;25.56;33.05;101794.19;5093104;27;47168;-62
2021/05/31 02:52:42;;;;;;;;;1.50;1.50;;;;;25.54;33.10;101790.75;5094261;27;45569;-62
2021/05/31 02:55:14;;;;;;;;;3.00;3.00;;;;;25.53;32.74;101797.06;5094247;27;45567;-61
2021/05/31 02:57:40;;;;;;;;;2.25;2.00;;;;;25.51;33.12;101793.66;5094587;27;45777;-61
2021/05/31 03:00:11;;;;;;;;;3.00;3.00;;;;;25.50;32.90;101796.47;5093250;27;47374;-62
2021/05/31 03:02:37;;;;;;;;;4.00;4.00;;;;;25.48;32.70;101802.78;5094432;27;45511;-62
2021/05/31 03:05:06;;;;;;;;;4.50;4.50;;;;;25.48;33.26;101797.44;5094382;27;45551;-62
2021/05/31 03:07:31;;;;;;;;;3.50;3.50;;;;;25.46;32.92;101801.22;5094330;27;45537;-61
2021/05/31 03:09:57;;;;;;;;;2.50;2.50;;;;;25.44;32.78;101801.31;5093245;27;53656;-62
2021/05/31 03:12:22;;;;;;;;;2.75;2.75;;;;;25.44;33.17;101801.31;5093108;27;45419;-62
2021/05/31 03:14:49;;;;;;;;;3.00;3.00;;;;;25.44;33.19;101795.13;5092787;27;45567;-62
2021/05/31 03:17:15;;;;;;;;;2.75;2.75;;;;;25.43;33.01;101794.28;5094160;27;45430;-62
2021/05/31 03:19:41;;;;;;;;;3.25;3.25;;;;;25.41;33.07;101793.53;5093955;27;46235;-62
2021/05/31 03:22:07;;;;;;;;;3.75;3.25;;;;;25.40;33.28;101793.69;5092768;27;45699;-62
2021/05/31 03:24:32;;;;;;;;;3.25;3.25;;;;;25.40;33.09;101796.34;5094071;27;45511;-61
2021/05/31 03:26:59;;;;;;;;;3.50;3.00;;;;;25.38;33.08;101795.63;5093950;27;45730;-62
2021/05/31 03:29:24;;;;;;;;;3.25;3.25;;;;;25.36;32.86;101795.72;5075442;27;46067;-62
2021/05/31 03:31:50;;;;;;;;;3.25;3.00;;;;;25.35;33.07;101794.03;5093405;27;45478;-61
2021/05/31 03:34:17;;;;;;;;;3.00;3.00;;;;;25.33;33.39;101802.16;5092280;27;45498;-62
2021/05/31 03:36:42;;;;;;;;;2.00;2.00;;;;;25.32;32.98;101802.31;5093967;27;45498;-62
2021/05/31 03:39:09;;;;;;;;;3.50;3.50;;;;;25.31;33.09;101806.81;5093169;27;49308;-62
2021/05/31 03:41:34;;;;;;;;;4.00;4.00;;;;;25.25;33.04;101799.28;5093959;27;45653;-62
2021/05/31 03:44:00;;;;;;;;;2.75;2.75;;;;;25.29;33.11;101802.53;5092919;27;45489;-62
2021/05/31 03:46:27;;;;;;;;;3.00;3.00;;;;;25.27;33.17;101805.34;5093720;27;45766;-62
2021/05/31 03:48:53;;;;;;;;;3.00;3.00;;;;;25.27;33.35;101812.53;5093461;27;46420;-62
2021/05/31 03:51:20;;;;;;;;;3.75;3.75;;;;;25.26;33.04;101809.00;5093181;27;45749;-62
2021/05/31 03:53:45;;;;;;;;;3.00;3.00;;;;;25.24;33.08;101808.28;5093505;27;45406;-61
2021/05/31 03:56:11;;;;;;;;;3.00;3.00;;;;;25.21;32.87;101814.72;5092733;27;45489;-62
2021/05/31 03:58:39;;;;;;;;;4.75;3.00;;;;;25.21;33.24;101814.72;5093264;27;45906;-62
2021/05/31 04:01:05;;;;;;;;;3.00;3.00;;;;;25.18;33.24;101814.94;5093522;27;45423;-62
2021/05/31 04:03:32;;;;;;;;;3.25;3.00;;;;;25.19;33.05;101813.97;5093533;27;45871;-62
2021/05/31 04:11:36;;;;;;;;;2.25;2.25;;;;;25.13;33.21;101814.44;5093155;27;45799;-61
2021/05/31 04:14:10;;;;;;;;;5.00;3.75;;;;;25.13;32.78;101808.25;5092342;27;45391;-62
2021/05/31 04:16:38;;;;;;;;;6.00;4.00;;;;;25.11;33.32;101810.19;5093500;27;45774;-62
2021/05/31 04:19:06;;;;;;;;;4.25;3.50;;;;;25.09;32.74;101810.31;5093071;27;45438;-61
2021/05/31 04:21:32;;;;;;;;;3.00;3.00;;;;;25.09;33.08;101810.31;5093181;27;45668;-62
2021/05/31 04:23:58;;;;;;;;;3.75;3.75;;;;;25.00;33.01;101797.69;5092626;27;45504;-62
2021/05/31 04:26:25;;;;;;;;;5.00;4.00;;;;;25.06;33.41;101803.38;5094748;27;45393;-62
2021/05/31 04:28:51;;;;;;;;;4.00;4.00;;;;;25.06;32.99;101807.88;5096451;27;46162;-62
2021/05/31 04:31:17;;;;;;;;;3.75;3.00;;;;;25.00;32.92;101795.00;5096316;27;45532;-62
2021/05/31 04:33:43;;;;;;;;;3.75;3.75;;;;;24.98;33.23;101799.59;5096621;27;45464;-62
2021/05/31 04:36:09;;;;;;;;;5.50;5.50;;;;;25.02;33.25;101807.28;5095615;27;45479;-62
2021/05/31 04:38:34;;;;;;;;;4.00;4.00;;;;;25.02;33.11;101811.78;5096394;27;46066;-62
2021/05/31 04:41:01;;;;;;;;;3.00;3.00;;;;;25.01;33.33;101816.25;5096639;27;45617;-62
2021/05/31 04:43:27;;;;;;;;;3.25;3.25;;;;;25.00;33.04;101806.53;5096647;27;45576;-62
2021/05/31 04:45:52;;;;;;;;;2.75;2.75;;;;;24.99;33.28;101803.97;5096536;27;45444;-61
2021/05/31 04:48:18;;;;;;;;;4.00;4.00;;;;;24.98;33.42;101811.16;5095012;27;47041;-61
2021/05/31 04:50:43;;;;;;;;;3.00;2.75;;;;;24.97;33.31;101808.59;5096247;27;45880;-61
2021/05/31 04:53:09;;;;;;;;;3.50;3.00;;;;;24.96;33.53;101806.91;5096149;27;45516;-61
2021/05/31 04:55:36;;;;;;;;;3.75;3.75;;;;;24.95;33.42;101814.06;5096334;27;45742;-61
2021/05/31 04:58:03;;;;;;;;;3.00;3.00;;;;;24.94;32.96;101810.56;5094985;27;46518;-62
2021/05/31 05:00:29;;;;;;;;;3.25;3.00;;;;;24.92;33.05;101808.97;5096363;27;45803;-62
2021/05/31 05:02:55;;;;;;;;;4.00;3.00;;;;;24.92;33.05;101815.16;5096224;27;45610;-62
2021/05/31 05:05:21;;;;;;;;;3.75;3.75;;;;;24.90;32.91;101806.41;5096002;27;45444;-62
2021/05/31 05:07:47;;;;;;;;;4.00;4.00;;;;;24.90;33.25;101813.56;5095993;27;46331;-61
2021/05/31 05:10:18;;;;;;;;;4.00;4.00;;;;;24.89;32.94;101809.19;5094541;27;45438;-62
2021/05/31 05:12:45;;;;;;;;;3.00;3.00;;;;;24.87;33.04;101805.81;5095936;27;45517;-62
2021/05/31 05:15:12;;;;;;;;;3.00;3.00;;;;;24.85;32.91;101792.56;5096156;27;45474;-62
2021/05/31 05:17:38;;;;;;;;;4.50;4.00;;;;;24.86;32.84;101801.41;5095839;27;47641;-62
2021/05/31 05:20:07;;;;;;;;;3.50;2.75;;;;;24.79;33.03;101801.03;5094875;27;45684;-62
2021/05/31 05:22:32;;;;;;;;;6.75;4.00;;;;;24.83;32.98;101802.50;5095876;27;45505;-62
2021/05/31 05:24:58;;;;;;;;;3.00;3.00;;;;;24.75;33.35;101794.22;5095716;27;45505;-61
2021/05/31 05:27:24;;;;;;;;;5.00;3.00;;;;;24.80;32.96;101795.53;5095586;27;46036;-62
2021/05/31 05:29:50;;;;;;;;;3.00;3.00;;;;;24.80;33.53;101800.03;5095428;27;45481;-61
2021/05/31 05:32:16;;;;;;;;;4.50;3.25;;;;;24.75;33.20;101795.03;5094366;27;45768;-62
2021/05/31 05:34:43;;;;;;;;;4.75;3.50;;;;;24.78;33.01;101799.28;5095796;27;45375;-62
2021/05/31 05:37:13;;;;;;;;;4.00;4.00;;;;;24.76;32.84;101796.75;5094133;27;45499;-61
2021/05/31 05:47:43;;;;;;;;;2.00;2.00;;;;;24.73;32.82;101801.47;5095235;27;45399;-62
2021/05/31 05:50:11;;;;;;;;;2.00;2.00;;;;;24.68;33.18;101792.00;5093932;27;46144;-62
2021/05/31 05:52:38;;;;;;;;;3.50;3.25;;;;;24.71;33.01;101801.59;5095417;27;45530;-62
2021/05/31 05:55:06;;;;;;;;;4.50;3.75;;;;;24.71;33.46;101792.72;5095371;27;45545;-62
2021/05/31 05:57:31;;;;;;;;;5.25;3.50;;;;;24.71;32.88;101803.41;5095192;27;46943;-62
2021/05/31 06:00:00;;;;;;;;;4.00;4.00;;;;;24.70;33.39;101799.88;5095134;27;45786;-63
2021/05/31 06:02:27;;;;;;;;;4.00;4.00;;;;;24.66;32.86;101787.75;5095251;27;45436;-62
2021/05/31 06:04:53;;;;;;;;;5.00;4.00;;;;;24.68;33.24;101789.34;5095227;27;45481;-62
2021/05/31 06:07:18;;;;;;;;;4.00;4.00;;;;;24.68;32.84;101788.47;5094850;27;46106;-62
2021/05/31 06:09:44;;;;;;;;;4.50;3.75;;;;;24.67;32.77;101784.94;5094947;27;45607;-62
2021/05/31 06:12:09;;;;;;;;;4.00;4.00;;;;;24.66;33.25;101782.41;5093949;27;45448;-62
2021/05/31 06:14:35;;;;;;;;;3.50;3.00;;;;;24.65;32.84;101778.88;5095230;27;45687;-62
2021/05/31 06:17:00;;;;;;;;;4.00;4.00;;;;;24.61;33.30;101777.41;5094478;27;52611;-62
2021/05/31 06:19:28;;;;;;;;;4.00;3.25;;;;;24.64;32.87;101781.66;5095132;27;45563;-62
2021/05/31 06:21:54;;;;;;;;;4.25;3.50;;;;;24.63;32.72;101785.31;5094724;27;45533;-64
2021/05/31 06:24:20;;;;;;;;;5.00;5.00;;;;;24.62;32.90;101780.94;5094253;27;45764;-61
2021/05/31 06:26:46;;;;;;;;;4.00;4.00;;;;;24.61;33.06;101784.59;5094639;27;46149;-62
2021/05/31 06:29:11;;;;;;;;;4.00;3.25;;;;;24.59;32.81;101778.50;5094536;27;45441;-62
2021/05/31 06:31:37;;;;;;;;;3.00;3.00;;;;;24.59;33.10;101787.38;5094574;27;45631;-61
2021/05/31 06:34:04;;;;;;;;;4.50;4.50;;;;;24.58;32.88;101790.16;5093300;27;45618;-62
2021/05/31 06:36:34;;;;;;;;;4.00;3.00;;;;;24.56;33.00;101787.59;5094792;27;46042;-62
2021/05/31 06:39:00;;;;;;;;;3.00;3.00;;;;;24.53;32.99;101779.81;5094547;27;45404;-62
2021/05/31 06:41:37;;;;;;;;;3.50;3.00;;;;;24.54;32.96;101782.34;5094744;27;45352;-62
2021/05/31 06:44:04;;;;;;;;;4.25;3.50;;;;;24.51;32.90;101779.06;5093435;27;45505;-62
2021/05/31 06:46:31;;;;;;;;;4.25;4.25;;;;;24.52;32.81;101786.97;5094246;27;46069;-61
2021/05/31 06:48:57;;;;;;;;;3.00;3.00;;;;;24.50;33.11;101791.59;5093945;27;45765;-61
2021/05/31 06:51:22;;;;;;;;;6.00;4.00;;;;;24.49;32.96;101792.53;5094029;27;47991;-62
2021/05/31 06:53:54;;;;;;;;;7.25;4.00;;;;;24.48;33.28;101785.50;5109126;27;45717;-59
2021/05/31 06:56:20;;;;;;;;;3.75;3.75;;;;;24.47;32.79;101783.81;5087922;27;47199;-60
2021/05/31 06:58:46;;;;;;;;;4.50;4.00;;;;;24.46;33.23;101779.44;5093334;27;45805;-59
2021/05/31 07:01:12;;;;;;;;;4.75;4.00;;;;;24.46;33.30;101781.25;5100334;27;45513;-60
2021/05/31 07:03:38;;;;;;;;;7.00;4.50;;;;;24.42;32.57;101777.97;5099432;27;45502;-60
2021/05/31 07:06:05;;;;;;;;;5.25;5.00;;;;;24.42;32.66;101778.81;5091567;27;46956;-61
2021/05/31 07:08:32;;;;;;;;;7.00;7.00;;;;;24.40;32.48;101769.22;5102759;27;45758;-60
2021/05/31 07:11:00;;;;;;;;;5.75;4.75;;;;;24.40;32.69;101771.91;5093235;27;45414;-61
2021/05/31 07:13:26;;;;;;;;;4.00;4.00;;;;;24.37;32.55;101764.97;5105292;27;45499;-61
2021/05/31 07:15:56;;;;;;;;;6.00;6.00;;;;;24.36;32.45;101768.59;5085507;27;46282;-61
2021/05/31 07:18:23;;;;;;;;;5.50;5.25;;;;;24.36;31.96;101767.75;5100573;27;45655;-63
2021/05/31 07:20:49;;;;;;;;;5.25;4.50;;;;;24.34;31.90;101762.53;5113878;27;45474;-64
2021/05/31 07:23:15;;;;;;;;;5.00;4.00;;;;;24.33;31.86;101766.16;5113813;27;45498;-63
2021/05/31 07:25:42;;;;;;;;;7.75;5.00;;;;;24.32;32.33;101764.47;5113821;27;46134;-62
2021/05/31 07:28:08;;;;;;;;;4.25;4.00;;;;;24.31;31.79;101764.56;5112704;27;45603;-63
2021/05/31 07:30:34;;;;;;;;;5.25;5.00;;;;;24.26;31.64;101751.59;5113845;27;45819;-63
2021/05/31 07:33:00;;;;;;;;;6.00;5.00;;;;;24.28;32.01;101761.19;5101610;27;45803;-63
2021/05/31 07:35:26;;;;;;;;;5.75;5.00;;;;;24.28;31.81;101757.66;5111002;27;46283;-62
2021/05/31 07:37:51;;;;;;;;;6.25;5.50;;;;;24.27;31.93;101759.47;5100820;27;45730;-63
2021/05/31 07:40:18;;;;;;;;;5.00;5.00;;;;;24.26;31.44;101759.59;5077454;27;45501;-62
2021/05/31 07:42:45;;;;;;;;;7.00;6.00;;;;;24.20;31.43;101749.34;5068759;27;45654;-63
2021/05/31 07:45:13;;;;;;;;;5.75;4.25;;;;;24.23;31.13;101757.16;5069772;28;47243;-62
2021/05/31 07:47:39;;;;;;;;;5.25;3.75;;;;;24.21;31.10;101754.59;5062661;28;45794;-61
2021/05/31 07:50:07;;;;;;;;;5.00;5.00;;;;;24.15;31.27;101745.25;5066368;27;45497;-63
2021/05/31 07:52:33;;;;;;;;;5.00;5.00;;;;;24.18;31.07;101748.63;5089646;27;45835;-62
2021/05/31 07:54:58;;;;;;;;;6.00;6.00;;;;;23.98;30.92;101724.25;5068886;27;46033;-62
2021/05/31 07:57:24;;;;;;;;;4.75;4.75;;;;;24.16;31.17;101746.06;5082946;27;45787;-64
2021/05/31 07:59:52;;;;;;;;;11.75;8.50;;;;;24.13;31.12;101747.16;5083878;27;45638;-63
2021/05/31 08:02:19;;;;;;;;;15.25;12.75;;;;;24.11;30.67;101748.25;5083989;27;45481;-59
2021/05/31 08:04:45;;;;;;;;;11.00;10.00;;;;;24.09;31.36;101752.84;5066639;28;47199;-60
2021/05/31 08:07:12;;;;;;;;;10.00;8.50;;;;;24.04;30.88;101744.31;5082613;27;45385;-62
2021/05/31 08:09:39;;;;;;;;;8.00;7.50;;;;;24.04;31.04;101745.13;5087047;27;45438;-62
2021/05/31 08:12:06;;;;;;;;;8.00;8.00;;;;;24.02;30.79;101737.28;5058106;27;45699;-65
2021/05/31 08:14:32;;;;;;;;;7.50;6.00;;;;;24.00;31.73;101733.84;5051483;28;47681;-62
2021/05/31 08:16:58;;;;;;;;;8.50;8.00;;;;;24.01;31.46;101727.53;5051505;28;45732;-63
2021/05/31 08:19:29;;;;;;;;;6.75;4.25;;;;;24.02;30.63;101734.59;5063427;28;45567;-61
2021/05/31 08:21:55;;;;;;;;;6.00;6.00;;;;;24.01;31.10;101735.53;5058584;27;45721;-61
2021/05/31 08:24:20;;;;;;;;;5.75;5.75;;;;;24.00;30.78;101728.50;5069715;27;45482;-60
2021/05/31 08:26:46;;;;;;;;;6.25;6.25;;;;;23.96;30.49;101724.38;5068171;27;45645;-60
2021/05/31 08:29:13;;;;;;;;;6.75;6.00;;;;;23.98;30.49;101722.44;5064674;27;45760;-61
2021/05/31 08:31:39;;;;;;;;;5.25;5.25;;;;;23.95;31.11;101725.34;5067621;27;45907;-65
2021/05/31 08:34:04;;;;;;;;;7.00;5.75;;;;;23.97;31.24;101728.75;5069628;27;47043;-65
2021/05/31 08:36:30;;;;;;;;;4.75;4.25;;;;;23.99;30.88;101723.28;5063761;27;45715;-67
2021/05/31 08:38:58;;;;;;;;;7.50;4.25;;;;;24.00;31.56;101711.66;5075478;27;46255;-65
2021/05/31 08:41:25;;;;;;;;;4.00;4.00;;;;;24.02;31.18;101723.06;5082456;27;45585;-67
2021/05/31 08:43:51;;;;;;;;;5.25;4.25;;;;;24.04;31.22;101710.44;5077997;27;46158;-66
2021/05/31 08:46:16;;;;;;;;;4.75;4.75;;;;;24.06;31.23;101700.53;5081150;27;45575;-68
2021/05/31 08:48:43;;;;;;;;;4.75;4.75;;;;;24.08;31.55;101708.44;5079985;27;45506;-66
2021/05/31 08:51:08;;;;;;;;;9.00;6.00;;;;;24.09;31.00;101707.47;5085492;27;45853;-62
2021/05/31 08:53:35;;;;;;;;;6.25;4.75;;;;;24.09;31.22;101694.97;5091840;27;45753;-64
2021/05/31 08:56:01;;;;;;;;;6.00;5.00;;;;;24.12;31.25;101693.88;5093891;27;45828;-64
2021/05/31 08:58:26;;;;;;;;;4.00;4.00;;;;;24.14;31.24;101702.66;5091314;27;45686;-63
2021/05/31 09:00:52;;;;;;;;;5.00;5.00;;;;;24.17;31.37;101704.25;5075142;27;45586;-62
2021/05/31 09:03:18;;;;;;;;;5.25;5.25;;;;;24.19;30.94;101704.97;5090460;27;47099;-62
2021/05/31 09:05:44;;;;;;;;;7.00;6.00;;;;;24.20;31.04;101701.31;5098260;27;46074;-62
2021/05/31 09:08:19;;;;;;;;;4.75;4.75;;;;;24.21;31.31;101695.03;5090449;27;45734;-62
2021/05/31 09:10:53;;;;;;;;;7.00;5.25;;;;;24.21;31.27;101690.53;5087114;27;45442;-61
2021/05/31 09:13:30;;;;;;;;;7.00;5.25;;;;;24.23;30.90;101693.94;5076690;27;46992;-62
2021/05/31 09:16:07;;;;;;;;;6.75;5.75;;;;;24.24;31.03;101695.66;5095321;27;46012;-63
2021/05/31 09:18:34;;;;;;;;;6.00;6.00;;;;;24.24;30.60;101687.63;5098958;27;45544;-63
2021/05/31 09:21:17;;;;;;;;;4.75;4.75;;;;;24.26;30.87;101692.88;5086879;27;45772;-61
2021/05/31 09:23:44;;;;;;;;;4.00;4.00;;;;;24.27;30.65;101684.72;5084643;27;45602;-62
2021/05/31 09:26:10;;;;;;;;;5.00;5.00;;;;;24.25;30.84;101676.00;5090732;27;45559;-64
2021/05/31 09:28:37;;;;;;;;;5.25;4.00;;;;;24.24;30.85;101674.28;5086198;27;45612;-60
2021/05/31 09:31:33;;;;;;;;;7.00;5.00;;;;;24.30;30.39;101682.81;5084652;27;47113;-67
2021/05/31 09:34:00;;;;;;;;;5.00;5.00;;;;;24.32;31.12;101676.38;5064177;27;47484;-64
2021/05/31 09:36:27;;;;;;;;;6.00;5.00;;;;;24.34;31.06;101676.22;5088364;27;45650;-60
2021/05/31 09:38:53;;;;;;;;;5.25;4.25;;;;;24.35;30.78;101673.44;5074861;27;45660;-63
2021/05/31 09:41:33;;;;;;;;;4.00;4.00;;;;;24.38;31.62;101680.38;5093533;27;46027;-66
2021/05/31 09:44:03;;;;;;;;;5.00;5.00;;;;;24.39;31.37;101682.94;5083388;27;46404;-64
2021/05/31 09:46:41;;;;;;;;;5.50;5.50;;;;;24.41;32.03;101680.16;5086058;27;45504;-67
2021/05/31 09:49:20;;;;;;;;;4.00;4.00;;;;;24.43;32.00;101686.22;5089724;27;45685;-70
2021/05/31 09:52:00;;;;;;;;;3.00;3.00;;;;;24.46;31.70;101682.44;5081384;27;45720;-66
2021/05/31 09:54:44;;;;;;;;;6.00;4.25;;;;;24.48;32.54;101684.03;5085127;27;46997;-69
2021/05/31 09:57:27;;;;;;;;;4.25;4.25;;;;;24.46;32.29;101677.97;5085947;27;46100;-68
2021/05/31 10:00:10;;;;;;;;;5.25;4.50;;;;;24.53;32.60;101684.53;5087607;27;45730;-68
2021/05/31 10:07:56;;;;;;;;;3.25;3.00;;;;;24.63;32.63;101690.03;5085037;27;45773;-66
2021/05/31 10:10:21;;;;;;;;;4.50;3.50;;;;;24.60;32.16;101678.69;5099639;27;45818;-63
2021/05/31 10:12:48;;;;;;;;;4.00;4.00;;;;;24.66;32.53;101687.09;5082938;27;45538;-62
2021/05/31 10:15:17;;;;;;;;;6.00;4.25;;;;;24.68;32.19;101677.16;5085764;27;46175;-66
2021/05/31 10:17:43;;;;;;;;;3.00;3.00;;;;;24.70;32.45;101674.34;5069173;27;45798;-68
2021/05/31 10:20:11;;;;;;;;;5.00;5.00;;;;;24.73;32.57;101663.41;5085823;27;45956;-65
2021/05/31 10:22:36;;;;;;;;;5.00;5.00;;;;;24.71;32.44;101668.06;5081901;27;45523;-65
2021/05/31 10:25:06;;;;;;;;;4.50;4.50;;;;;24.78;32.49;101671.06;5086215;27;46172;-60
2021/05/31 10:27:34;;;;;;;;;5.50;5.50;;;;;24.80;32.58;101664.63;5090650;27;45704;-62
2021/05/31 10:30:01;;;;;;;;;4.75;4.00;;;;;24.84;33.31;101665.28;5085148;27;45582;-64
2021/05/31 10:32:28;;;;;;;;;4.00;4.00;;;;;24.87;33.10;101670.38;5086931;27;46718;-63
2021/05/31 10:34:54;;;;;;;;;6.25;5.00;;;;;24.90;33.06;101661.25;5079438;27;46410;-67
2021/05/31 10:37:27;;;;;;;;;5.25;4.75;;;;;24.93;33.37;101667.19;5083279;27;45756;-61
2021/05/31 10:40:02;;;;;;;;;6.00;5.75;;;;;24.97;33.00;101670.50;5079502;27;45641;-65
2021/05/31 10:43:04;;;;;;;;;5.25;5.25;;;;;25.01;32.92;101671.09;5080890;27;45652;-68
2021/05/31 10:45:30;;;;;;;;;4.00;4.00;;;;;25.03;33.22;101661.13;5072843;27;47129;-66
2021/05/31 10:47:56;;;;;;;;;4.25;4.00;;;;;25.06;33.10;101663.56;5088748;27;45528;-64
2021/05/31 10:50:31;;;;;;;;;6.25;5.25;;;;;25.08;32.77;101654.47;5081337;27;45716;-62
2021/05/31 10:52:58;;;;;;;;;4.00;4.00;;;;;25.09;32.87;101652.63;5095535;27;45541;-65
2021/05/31 10:55:26;;;;;;;;;4.25;4.00;;;;;25.13;33.10;101648.72;5108020;27;46520;-62
2021/05/31 10:57:54;;;;;;;;;5.00;5.00;;;;;25.17;32.81;101657.34;5099582;27;45741;-64
2021/05/31 11:00:29;;;;;;;;;4.00;4.00;;;;;25.19;33.00;101648.22;5089950;27;45527;-62
2021/05/31 11:03:12;;;;;;;;;6.00;4.00;;;;;25.21;32.66;101650.78;5086512;27;45395;-62
2021/05/31 11:05:39;;;;;;;;;5.50;5.50;;;;;25.13;32.94;101624.66;5072658;27;46105;-62
2021/05/31 11:08:07;;;;;;;;;5.75;4.00;;;;;25.24;33.23;101639.84;5090063;27;45808;-63
2021/05/31 11:10:36;;;;;;;;;6.00;4.75;;;;;25.26;33.14;101631.69;5096937;27;45760;-63
2021/05/31 11:13:15;;;;;;;;;4.00;4.00;;;;;25.27;33.06;101634.22;5092565;27;45990;-65
2021/05/31 11:15:43;;;;;;;;;4.75;4.75;;;;;25.29;32.93;101626.94;5090908;27;46391;-64
2021/05/31 11:18:20;;;;;;;;;4.25;4.25;;;;;25.31;32.98;101632.16;5078069;27;45529;-64
2021/05/31 11:20:46;;;;;;;;;4.00;4.00;;;;;25.29;32.79;101626.09;5071718;28;45699;-61
2021/05/31 11:23:11;;;;;;;;;4.00;4.00;;;;;25.33;32.88;101616.84;5088058;27;45648;-61
2021/05/31 11:25:37;;;;;;;;;5.00;4.00;;;;;25.30;32.84;101614.41;5094513;27;45784;-61
2021/05/31 11:28:07;;;;;;;;;3.50;3.50;;;;;25.35;32.74;101614.88;5079862;27;45781;-62
2021/05/31 11:30:35;;;;;;;;;6.00;5.00;;;;;25.35;32.40;101617.56;5090431;27;45613;-61
2021/05/31 11:33:04;;;;;;;;;41.00;36.50;;;;;25.37;32.78;101617.44;5089005;27;45469;-61
2021/05/31 11:35:31;;;;;;;;;312.25;254.75;;;;;25.37;32.79;101614.75;5082074;27;45693;-60
2021/05/31 11:37:58;;;;;;;;;216.50;188.00;;;;;25.38;32.58;101611.97;5083880;27;45860;-65
2021/05/31 11:40:27;;;;;;;;;118.25;106.50;;;;;25.39;31.72;101605.66;5066365;27;45481;-66
2021/05/31 11:43:03;;;;;;;;;96.50;82.00;;;;;25.40;32.33;101611.84;5070183;27;45662;-66
2021/05/31 11:45:37;;;;;;;;;58.25;46.25;;;;;25.38;31.08;101611.97;5054511;28;46359;-66
2021/05/31 11:48:06;;;;;;;;;49.25;39.00;;;;;25.36;30.80;101605.06;5070279;28;45582;-67